createdAt,value
2023-05-05T00:01:33.193Z,100.00
2023-05-05T00:04:00.049Z,100.00
2023-05-05T00:06:28.457Z,100.00
2023-05-05T00:08:56.278Z,100.00
2023-05-05T00:11:23.091Z,100.00
2023-05-05T00:13:49.884Z,100.00
2023-05-05T00:16:17.080Z,100.00
2023-05-05T00:18:44.498Z,100.00
2023-05-05T00:21:11.266Z,100.00
2023-05-05T00:23:38.009Z,100.00
2023-05-05T00:26:04.704Z,100.00
2023-05-05T00:28:31.539Z,100.00
2023-05-05T00:30:58.876Z,100.00
2023-05-05T00:33:25.926Z,100.00
2023-05-05T00:35:52.718Z,100.00
2023-05-05T00:38:19.428Z,100.00
2023-05-05T00:40:46.220Z,100.00
2023-05-05T00:43:13.024Z,100.00
2023-05-05T00:45:42.889Z,100.00
2023-05-05T00:48:11.170Z,100.00
2023-05-05T00:50:37.979Z,100.00
2023-05-05T00:53:06.098Z,100.00
2023-05-05T00:55:33.757Z,100.00
2023-05-05T00:58:01.132Z,100.00
2023-05-05T01:00:28.121Z,100.00
2023-05-05T01:02:55.440Z,100.00
2023-05-05T01:05:22.636Z,100.00
2023-05-05T01:08:06.979Z,100.00
2023-05-05T01:10:38.746Z,100.00
2023-05-05T01:13:09.530Z,100.00
2023-05-05T01:15:37.880Z,100.00
2023-05-05T01:18:23.339Z,100.00
2023-05-05T01:21:02.016Z,100.00
2023-05-05T01:23:45.358Z,100.00
2023-05-05T01:26:37.490Z,100.00
2023-05-05T01:29:26.059Z,100.00
2023-05-05T01:31:53.792Z,100.00
2023-05-05T01:34:26.483Z,100.00
2023-05-05T01:36:57.539Z,100.00
2023-05-05T01:39:24.945Z,100.00
2023-05-05T01:41:51.779Z,100.00
2023-05-05T01:44:19.922Z,100.00
2023-05-05T01:46:47.820Z,100.00
2023-05-05T01:49:14.536Z,100.00
2023-05-05T01:51:41.212Z,100.00
2023-05-05T01:54:08.432Z,100.00
2023-05-05T01:56:35.281Z,100.00
2023-05-05T01:59:02.238Z,100.00
2023-05-05T02:01:29.013Z,100.00
2023-05-05T02:03:59.186Z,100.00
2023-05-05T02:06:26.875Z,100.00
2023-05-05T02:08:53.565Z,100.00
2023-05-05T02:11:21.539Z,100.00
2023-05-05T02:13:48.649Z,100.00
2023-05-05T02:16:15.847Z,100.00
2023-05-05T02:18:42.688Z,100.00
2023-05-05T02:21:09.384Z,100.00
2023-05-05T02:23:36.433Z,100.00
2023-05-05T02:26:09.672Z,100.00
2023-05-05T02:28:47.192Z,100.00
2023-05-05T02:31:14.026Z,100.00
2023-05-05T02:33:41.004Z,100.00
2023-05-05T02:36:12.694Z,100.00
2023-05-05T02:38:46.706Z,100.00
2023-05-05T02:41:16.614Z,100.00
2023-05-05T02:43:44.135Z,100.00
2023-05-05T02:46:11.137Z,100.00
2023-05-05T02:48:38.098Z,100.00
2023-05-05T02:51:05.832Z,100.00
2023-05-05T02:53:35.599Z,100.00
2023-05-05T02:56:21.022Z,100.00
2023-05-05T02:59:09.293Z,100.00
2023-05-05T03:01:53.180Z,100.00
2023-05-05T03:04:28.770Z,100.00
2023-05-05T03:07:00.233Z,100.00
2023-05-05T03:09:28.124Z,100.00
2023-05-05T03:12:01.173Z,100.00
2023-05-05T03:14:32.091Z,100.00
2023-05-05T03:17:00.571Z,100.00
2023-05-05T03:19:27.284Z,100.00
2023-05-05T03:21:55.704Z,100.00
2023-05-05T03:24:22.961Z,100.00
2023-05-05T03:26:58.625Z,100.00
2023-05-05T03:29:30.137Z,100.00
2023-05-05T03:31:58.171Z,100.00
2023-05-05T03:34:25.285Z,100.00
2023-05-05T03:36:52.093Z,100.00
2023-05-05T03:39:19.348Z,100.00
2023-05-05T03:41:46.217Z,100.00
2023-05-05T03:44:13.179Z,100.00
2023-05-05T03:46:39.891Z,100.00
2023-05-05T03:49:09.827Z,100.00
2023-05-05T03:51:37.157Z,100.00
2023-05-05T03:54:03.882Z,100.00
2023-05-05T03:56:30.721Z,100.00
2023-05-05T03:58:57.436Z,100.00
2023-05-05T04:01:24.330Z,100.00
2023-05-05T04:03:51.331Z,100.00
2023-05-05T04:06:18.139Z,100.00
2023-05-05T04:08:44.925Z,100.00
2023-05-05T04:11:11.719Z,100.00
2023-05-05T04:13:39.253Z,100.00
2023-05-05T04:16:06.337Z,100.00
2023-05-05T04:18:33.101Z,100.00
2023-05-05T04:21:00.251Z,100.00
2023-05-05T04:23:27.361Z,100.00
2023-05-05T04:25:54.240Z,100.00
2023-05-05T04:28:21.977Z,100.00
2023-05-05T04:30:49.160Z,100.00
2023-05-05T04:33:16.047Z,100.00
2023-05-05T04:35:42.862Z,100.00
2023-05-05T04:38:09.847Z,100.00
2023-05-05T04:40:41.278Z,100.00
2023-05-05T04:43:08.637Z,100.00
2023-05-05T04:45:35.638Z,100.00
2023-05-05T04:48:04.320Z,100.00
2023-05-05T04:50:31.625Z,100.00
2023-05-05T04:52:58.404Z,100.00
2023-05-05T04:55:25.497Z,100.00
2023-05-05T04:57:52.229Z,100.00
2023-05-05T05:00:19.057Z,100.00
2023-05-05T05:02:45.908Z,100.00
2023-05-05T05:05:12.785Z,99.26
2023-05-05T05:07:39.589Z,96.64
2023-05-05T05:10:07.129Z,94.43
2023-05-05T05:12:34.137Z,90.41
2023-05-05T05:15:00.911Z,87.47
2023-05-05T05:17:27.752Z,84.03
2023-05-05T05:19:55.458Z,79.27
2023-05-05T05:22:22.498Z,76.15
2023-05-05T05:24:49.510Z,71.45
2023-05-05T05:27:16.284Z,67.30
2023-05-05T05:29:44.124Z,65.42
2023-05-05T05:32:11.164Z,64.66
2023-05-05T05:34:38.290Z,60.96
2023-05-05T05:37:05.564Z,58.45
2023-05-05T05:39:32.592Z,55.63
2023-05-05T05:41:59.544Z,52.97
2023-05-05T05:44:26.430Z,49.91
2023-05-05T05:46:53.257Z,47.33
2023-05-05T05:49:20.127Z,44.86
2023-05-05T05:51:47.079Z,44.40
2023-05-05T05:54:13.802Z,43.52
2023-05-05T05:56:40.652Z,42.68
2023-05-05T05:59:10.700Z,41.90
2023-05-05T06:01:38.078Z,41.91
2023-05-05T06:04:04.999Z,40.77
2023-05-05T06:06:31.993Z,39.55
2023-05-05T06:08:58.884Z,38.69
2023-05-05T06:11:26.171Z,37.83
2023-05-05T06:13:52.859Z,36.82
2023-05-05T06:16:19.727Z,36.11
2023-05-05T06:18:47.350Z,35.17
2023-05-05T06:21:14.250Z,34.95
2023-05-05T06:23:42.132Z,33.68
2023-05-05T06:26:09.179Z,32.85
2023-05-05T06:28:35.957Z,31.97
2023-05-05T06:31:02.822Z,31.74
2023-05-05T06:33:29.675Z,31.34
2023-05-05T06:35:56.375Z,30.34
2023-05-05T06:38:23.092Z,28.95
2023-05-05T06:40:50.334Z,28.28
2023-05-05T06:43:17.157Z,27.97
2023-05-05T06:45:47.582Z,27.61
2023-05-05T06:48:14.427Z,27.18
2023-05-05T06:50:41.221Z,26.26
2023-05-05T06:53:08.034Z,25.56
2023-05-05T06:55:34.901Z,25.15
2023-05-05T06:58:01.841Z,25.05
2023-05-05T07:00:28.662Z,24.85
2023-05-05T07:02:55.500Z,23.59
2023-05-05T07:05:22.442Z,22.92
2023-05-05T07:07:55.836Z,22.61
2023-05-05T07:10:23.280Z,21.88
2023-05-05T07:12:50.368Z,22.13
2023-05-05T07:15:28.097Z,21.91
2023-05-05T07:17:56.486Z,22.01
2023-05-05T07:20:23.460Z,21.33
2023-05-05T07:22:50.422Z,20.96
2023-05-05T07:25:17.382Z,20.48
2023-05-05T07:27:44.209Z,20.07
2023-05-05T07:30:14.743Z,19.21
2023-05-05T07:32:44.407Z,19.16
2023-05-05T07:35:11.356Z,19.27
2023-05-05T07:37:38.151Z,18.80
2023-05-05T07:40:05.931Z,18.52
2023-05-05T07:42:32.935Z,18.37
2023-05-05T07:44:59.716Z,18.44
2023-05-05T07:47:26.798Z,17.97
2023-05-05T07:49:53.947Z,17.60
2023-05-05T07:52:30.049Z,17.58
2023-05-05T07:55:04.923Z,17.52
2023-05-05T07:57:31.718Z,17.21
2023-05-05T07:59:58.410Z,17.22
2023-05-05T08:02:25.344Z,17.16
2023-05-05T08:04:52.166Z,16.98
2023-05-05T08:07:18.944Z,16.12
2023-05-05T08:09:45.772Z,16.05
2023-05-05T08:12:12.656Z,16.31
2023-05-05T08:14:40.517Z,16.05
2023-05-05T08:17:07.470Z,15.33
2023-05-05T08:19:34.531Z,14.43
2023-05-05T08:22:01.763Z,14.02
2023-05-05T08:24:28.744Z,13.92
2023-05-05T08:26:56.720Z,13.62
2023-05-05T08:29:23.647Z,13.72
2023-05-05T08:31:50.406Z,13.40
2023-05-05T08:34:17.108Z,13.33
2023-05-05T08:36:43.864Z,13.80
2023-05-05T08:39:10.937Z,14.04
2023-05-05T08:41:37.816Z,13.06
2023-05-05T08:44:04.591Z,12.71
2023-05-05T08:46:31.469Z,12.13
2023-05-05T08:48:58.470Z,11.98
2023-05-05T08:51:25.922Z,12.38
2023-05-05T08:54:02.557Z,12.35
2023-05-05T08:56:33.825Z,12.42
2023-05-05T08:59:01.591Z,12.78
2023-05-05T09:01:28.523Z,12.57
2023-05-05T09:03:55.929Z,12.40
2023-05-05T09:06:23.571Z,12.45
2023-05-05T09:08:50.424Z,12.57
2023-05-05T09:11:17.165Z,12.52
2023-05-05T09:13:44.002Z,12.61
2023-05-05T09:16:10.929Z,12.10
2023-05-05T09:18:38.023Z,12.03
2023-05-05T09:21:24.775Z,12.24
2023-05-05T09:24:08.111Z,12.43
2023-05-05T09:26:37.050Z,12.61
2023-05-05T09:29:04.088Z,12.64
2023-05-05T09:31:31.604Z,12.18
2023-05-05T09:34:01.044Z,11.84
2023-05-05T09:36:50.397Z,11.85
2023-05-05T09:39:18.260Z,11.59
2023-05-05T09:41:45.223Z,11.86
2023-05-05T09:44:12.505Z,11.99
2023-05-05T09:46:49.181Z,11.62
2023-05-05T09:49:19.296Z,11.63
2023-05-05T09:51:46.658Z,11.75
2023-05-05T09:54:24.091Z,11.48
2023-05-05T09:56:50.979Z,11.50
2023-05-05T09:59:17.946Z,11.68
2023-05-05T10:01:44.724Z,11.50
2023-05-05T10:04:25.032Z,11.53
2023-05-05T10:06:51.913Z,11.60
2023-05-05T10:09:18.673Z,11.73
2023-05-05T10:11:46.412Z,11.77
2023-05-05T10:14:14.788Z,12.23
2023-05-05T10:16:51.223Z,12.98
2023-05-05T10:19:19.320Z,13.80
2023-05-05T10:21:48.300Z,14.56
2023-05-05T10:24:47.238Z,15.52
2023-05-05T10:27:20.635Z,16.43
2023-05-05T10:30:07.572Z,17.02
2023-05-05T10:35:22.299Z,18.76
2023-05-05T10:37:49.240Z,19.67
2023-05-05T10:40:16.676Z,20.66
2023-05-05T10:42:43.555Z,21.02
2023-05-05T10:45:10.447Z,21.55
2023-05-05T10:47:37.762Z,21.73
2023-05-05T10:50:30.006Z,22.10
2023-05-05T10:53:32.711Z,22.40
2023-05-05T10:56:11.733Z,22.66
2023-05-05T10:58:55.502Z,22.88
2023-05-05T11:01:43.823Z,23.28
2023-05-05T11:04:16.961Z,23.39
2023-05-05T11:07:10.433Z,23.72
2023-05-05T11:10:10.778Z,24.37
2023-05-05T11:12:57.948Z,24.51
2023-05-05T11:15:27.909Z,24.84
2023-05-05T11:17:58.194Z,25.08
2023-05-05T11:20:37.650Z,25.07
2023-05-05T11:23:04.873Z,24.95
2023-05-05T11:25:35.319Z,25.31
2023-05-05T11:28:05.768Z,25.29
2023-05-05T11:30:32.654Z,25.69
2023-05-05T11:33:30.686Z,25.95
2023-05-05T11:36:06.488Z,26.31
2023-05-05T11:38:48.754Z,26.64
2023-05-05T11:41:33.715Z,27.39
2023-05-05T11:44:19.750Z,27.43
2023-05-05T11:46:52.710Z,28.18
2023-05-05T11:49:32.462Z,28.09
2023-05-05T11:52:01.138Z,28.09
2023-05-05T11:54:28.032Z,28.05
2023-05-05T11:57:04.998Z,28.12
2023-05-05T11:59:32.332Z,28.05
2023-05-05T12:01:59.243Z,28.25
2023-05-05T12:04:26.120Z,28.16
2023-05-05T12:06:52.841Z,28.11
2023-05-05T12:09:21.265Z,27.99
2023-05-05T12:11:52.524Z,28.08
2023-05-05T12:14:19.471Z,28.52
2023-05-05T12:16:55.953Z,28.46
2023-05-05T12:19:22.804Z,27.98
2023-05-05T12:21:49.578Z,28.10
2023-05-05T12:24:16.605Z,27.94
2023-05-05T12:26:43.375Z,28.00
2023-05-05T12:29:10.085Z,27.87
2023-05-05T12:31:41.514Z,27.82
2023-05-05T12:34:09.084Z,27.95
2023-05-05T12:36:36.321Z,28.37
2023-05-05T12:39:05.073Z,28.50
2023-05-05T12:41:32.325Z,28.35
2023-05-05T12:43:59.674Z,28.34
2023-05-05T12:46:26.712Z,28.47
2023-05-05T12:49:08.058Z,28.36
2023-05-05T12:51:36.061Z,28.36
2023-05-05T12:54:05.412Z,28.81
2023-05-05T12:56:45.836Z,29.07
2023-05-05T12:59:18.078Z,28.98
2023-05-05T13:01:52.156Z,28.78
2023-05-05T13:04:19.563Z,28.91
2023-05-05T13:06:47.618Z,29.23
2023-05-05T13:09:23.693Z,29.29
2023-05-05T13:11:50.484Z,29.66
2023-05-05T13:14:17.210Z,29.83
2023-05-05T13:16:44.059Z,29.27
2023-05-05T13:19:10.876Z,29.40
2023-05-05T13:21:37.567Z,29.11
2023-05-05T13:24:21.211Z,28.67
2023-05-05T13:26:51.777Z,28.67
2023-05-05T13:29:18.645Z,29.24
2023-05-05T13:31:45.578Z,29.61
2023-05-05T13:34:12.340Z,29.69
2023-05-05T13:36:39.085Z,29.29
2023-05-05T13:39:05.854Z,29.21
2023-05-05T13:41:32.633Z,28.80
2023-05-05T13:43:59.348Z,28.96
2023-05-05T13:46:26.258Z,29.18
2023-05-05T13:48:56.653Z,29.51
2023-05-05T13:51:23.670Z,29.67
2023-05-05T13:53:50.505Z,29.83
2023-05-05T13:56:19.120Z,29.89
2023-05-05T13:58:46.385Z,29.98
2023-05-05T14:01:13.290Z,30.10
2023-05-05T14:03:40.436Z,30.15
2023-05-05T14:06:09.097Z,30.36
2023-05-05T14:08:35.844Z,30.49
2023-05-05T14:11:03.274Z,30.66
2023-05-05T14:13:30.033Z,30.78
2023-05-05T14:15:58.345Z,31.14
2023-05-05T14:18:28.497Z,31.54
2023-05-05T14:20:55.382Z,31.80
2023-05-05T14:23:22.085Z,32.01
2023-05-05T14:25:48.850Z,32.63
2023-05-05T14:28:15.598Z,32.85
2023-05-05T14:30:42.308Z,33.04
2023-05-05T14:33:08.976Z,32.97
2023-05-05T14:35:35.753Z,32.88
2023-05-05T14:38:02.515Z,33.34
2023-05-05T14:40:30.325Z,33.83
2023-05-05T14:43:00.201Z,34.17
2023-05-05T14:45:29.548Z,34.54
2023-05-05T14:47:56.372Z,34.94
2023-05-05T14:50:23.294Z,35.03
2023-05-05T14:52:50.515Z,35.26
2023-05-05T14:55:17.288Z,35.48
2023-05-05T14:57:44.096Z,35.79
2023-05-05T15:00:11.295Z,36.06
2023-05-05T15:02:38.497Z,36.25
2023-05-05T15:05:06.616Z,36.70
2023-05-05T15:07:33.969Z,36.99
2023-05-05T15:10:03.259Z,37.50
2023-05-05T15:12:30.051Z,38.13
2023-05-05T15:14:56.804Z,38.74
2023-05-05T15:17:23.578Z,39.37
2023-05-05T15:19:50.398Z,39.75
2023-05-05T15:22:17.383Z,40.19
2023-05-05T15:24:44.715Z,40.69
2023-05-05T15:27:11.685Z,41.19
2023-05-05T15:29:38.373Z,41.75
2023-05-05T15:32:06.026Z,42.10
2023-05-05T15:34:32.867Z,42.66
2023-05-05T15:36:59.625Z,43.20
2023-05-05T15:39:26.369Z,43.75
2023-05-05T15:41:53.086Z,44.27
2023-05-05T15:44:21.133Z,44.72
2023-05-05T15:46:50.220Z,45.38
2023-05-05T15:49:17.285Z,46.03
2023-05-05T15:51:44.087Z,46.76
2023-05-05T15:54:10.959Z,47.61
2023-05-05T15:56:37.780Z,48.43
2023-05-05T15:59:07.493Z,49.22
2023-05-05T16:01:36.305Z,50.21
2023-05-05T16:04:03.676Z,51.14
2023-05-05T16:06:30.606Z,51.57
2023-05-05T16:08:58.695Z,51.56
2023-05-05T16:11:33.606Z,52.05
2023-05-05T16:14:00.627Z,52.44
2023-05-05T16:16:27.436Z,52.67
2023-05-05T16:18:55.088Z,53.53
2023-05-05T16:21:22.307Z,54.02
2023-05-05T16:23:49.629Z,54.22
2023-05-05T16:26:16.514Z,54.53
2023-05-05T16:28:43.256Z,55.04
2023-05-05T16:31:11.069Z,55.57
2023-05-05T16:33:43.683Z,56.31
2023-05-05T16:36:11.803Z,57.34
2023-05-05T16:38:39.589Z,58.83
2023-05-05T16:41:09.337Z,60.04
2023-05-05T16:43:37.278Z,60.84
2023-05-05T16:46:04.265Z,62.27
2023-05-05T16:48:31.077Z,63.64
2023-05-05T16:50:58.144Z,64.73
2023-05-05T16:53:25.549Z,65.87
2023-05-05T16:55:53.052Z,66.89
2023-05-05T16:58:23.012Z,67.59
2023-05-05T17:00:50.403Z,68.32
2023-05-05T17:03:18.077Z,69.36
2023-05-05T17:05:46.629Z,70.22
2023-05-05T17:08:15.291Z,71.02
2023-05-05T17:10:42.277Z,71.58
2023-05-05T17:13:10.065Z,72.26
2023-05-05T17:15:37.546Z,73.31
2023-05-05T17:18:05.686Z,74.41
2023-05-05T17:20:33.399Z,75.98
2023-05-05T17:23:02.099Z,77.32
2023-05-05T17:25:29.136Z,78.97
2023-05-05T17:27:56.223Z,80.16
2023-05-05T17:30:23.201Z,81.58
2023-05-05T17:32:49.960Z,82.91
2023-05-05T17:35:16.801Z,84.16
2023-05-05T17:37:44.367Z,85.49
2023-05-05T17:40:18.752Z,86.70
2023-05-05T17:42:46.008Z,87.40
2023-05-05T17:45:12.920Z,88.49
2023-05-05T17:47:39.814Z,89.26
2023-05-05T17:50:07.061Z,90.03
2023-05-05T17:52:34.058Z,90.61
2023-05-05T17:55:00.939Z,91.05
2023-05-05T17:57:28.723Z,91.50
2023-05-05T17:59:55.693Z,91.92
2023-05-05T18:02:24.089Z,92.03
2023-05-05T18:04:56.427Z,92.24
2023-05-05T18:07:23.887Z,92.83
2023-05-05T18:09:50.792Z,93.22
2023-05-05T18:12:17.541Z,93.76
2023-05-05T18:14:44.812Z,94.13
2023-05-05T18:17:14.908Z,94.39
2023-05-05T18:19:46.168Z,94.83
2023-05-05T18:22:17.338Z,95.58
2023-05-05T18:24:46.230Z,96.11
2023-05-05T18:27:13.111Z,96.57
2023-05-05T18:29:43.119Z,97.32
2023-05-05T18:32:10.245Z,98.00
2023-05-05T18:34:37.702Z,98.79
2023-05-05T18:37:08.045Z,99.58
2023-05-05T18:39:38.965Z,100.00
2023-05-05T18:42:07.875Z,100.00
2023-05-05T18:44:37.590Z,100.00
2023-05-05T18:47:04.895Z,100.00
2023-05-05T18:49:32.495Z,100.00
2023-05-05T18:51:59.377Z,100.00
2023-05-05T18:54:26.534Z,100.00
2023-05-05T18:56:53.376Z,100.00
2023-05-05T18:59:20.859Z,100.00
2023-05-05T19:01:50.879Z,100.00
2023-05-05T19:04:30.112Z,100.00
2023-05-05T19:06:57.711Z,100.00
2023-05-05T19:09:24.436Z,100.00
2023-05-05T19:11:51.300Z,100.00
2023-05-05T19:14:18.840Z,100.00
2023-05-05T19:16:46.316Z,100.00
2023-05-05T19:19:13.153Z,100.00
2023-05-05T19:21:40.006Z,100.00
2023-05-05T19:24:09.319Z,100.00
2023-05-05T19:26:36.704Z,100.00
2023-05-05T19:29:03.756Z,100.00
2023-05-05T19:31:31.307Z,100.00
2023-05-05T19:34:03.369Z,100.00
2023-05-05T19:36:34.051Z,100.00
2023-05-05T19:39:01.848Z,100.00
2023-05-05T19:41:29.923Z,100.00
2023-05-05T19:43:57.958Z,100.00
2023-05-05T19:46:26.650Z,100.00
2023-05-05T19:48:53.728Z,100.00
2023-05-05T19:51:20.662Z,100.00
2023-05-05T19:53:47.456Z,100.00
2023-05-05T19:56:14.305Z,100.00
2023-05-05T19:58:58.933Z,100.00
2023-05-05T20:01:26.424Z,100.00
2023-05-05T20:03:54.836Z,100.00
2023-05-05T20:06:22.329Z,100.00
2023-05-05T20:08:49.239Z,100.00
2023-05-05T20:11:16.226Z,100.00
2023-05-05T20:13:43.245Z,100.00
2023-05-05T20:16:10.218Z,100.00
2023-05-05T20:18:37.045Z,100.00
2023-05-05T20:21:03.905Z,100.00
2023-05-05T20:23:30.784Z,100.00
2023-05-05T20:25:57.835Z,100.00
2023-05-05T20:28:24.683Z,100.00
2023-05-05T20:30:51.648Z,100.00
2023-05-05T20:33:18.520Z,100.00
2023-05-05T20:35:45.336Z,100.00
2023-05-05T20:38:12.110Z,100.00
2023-05-05T20:40:39.733Z,100.00
2023-05-05T20:43:06.551Z,100.00
2023-05-05T20:45:37.112Z,100.00
2023-05-05T20:48:04.779Z,100.00
2023-05-05T20:50:31.877Z,100.00
2023-05-05T20:52:58.746Z,100.00
2023-05-05T20:55:25.648Z,100.00
2023-05-05T20:57:52.529Z,100.00
2023-05-05T21:00:19.368Z,100.00
2023-05-05T21:02:46.338Z,100.00
2023-05-05T21:05:14.067Z,100.00
2023-05-05T21:07:40.898Z,100.00
2023-05-05T21:10:08.290Z,100.00
2023-05-05T21:12:35.520Z,100.00
2023-05-05T21:15:02.594Z,100.00
2023-05-05T21:17:29.462Z,100.00
2023-05-05T21:19:56.915Z,100.00
2023-05-05T21:22:23.626Z,100.00
2023-05-05T21:24:50.749Z,100.00
2023-05-05T21:27:17.538Z,100.00
2023-05-05T21:29:44.239Z,100.00
2023-05-05T21:32:11.408Z,100.00
2023-05-05T21:34:38.786Z,100.00
2023-05-05T21:37:06.084Z,100.00
2023-05-05T21:39:33.283Z,100.00
2023-05-05T21:42:00.386Z,100.00
2023-05-05T21:44:28.271Z,100.00
2023-05-05T21:46:55.658Z,100.00
2023-05-05T21:49:23.978Z,100.00
2023-05-05T21:51:50.764Z,100.00
2023-05-05T21:54:17.499Z,100.00
2023-05-05T21:56:44.257Z,100.00
2023-05-05T21:59:11.112Z,100.00
2023-05-05T22:01:37.909Z,100.00
2023-05-05T22:04:05.243Z,100.00
2023-05-05T22:06:32.547Z,100.00
2023-05-05T22:08:59.390Z,100.00
2023-05-05T22:11:26.908Z,100.00
2023-05-05T22:13:53.844Z,100.00
2023-05-05T22:16:20.745Z,100.00
2023-05-05T22:18:47.537Z,100.00
2023-05-05T22:21:14.232Z,100.00
2023-05-05T22:23:43.814Z,100.00
2023-05-05T22:26:10.631Z,100.00
2023-05-05T22:28:38.218Z,100.00
2023-05-05T22:31:05.022Z,100.00
2023-05-05T22:33:32.047Z,100.00
2023-05-05T22:35:58.780Z,100.00
2023-05-05T22:38:25.927Z,100.00
2023-05-05T22:40:53.007Z,100.00
2023-05-05T22:43:20.787Z,100.00
2023-05-05T22:45:47.900Z,100.00
2023-05-05T22:48:15.065Z,100.00
2023-05-05T22:50:41.905Z,100.00
2023-05-05T22:53:08.693Z,100.00
2023-05-05T22:55:36.059Z,100.00
2023-05-05T22:58:02.740Z,100.00
2023-05-05T23:00:29.917Z,100.00
2023-05-05T23:02:56.798Z,100.00
2023-05-05T23:05:23.570Z,100.00
2023-05-05T23:07:50.343Z,100.00
2023-05-05T23:10:17.108Z,100.00
2023-05-05T23:12:43.822Z,100.00
2023-05-05T23:15:11.352Z,100.00
2023-05-05T23:17:38.355Z,100.00
2023-05-05T23:20:06.286Z,100.00
2023-05-05T23:22:33.015Z,100.00
2023-05-05T23:24:59.723Z,100.00
2023-05-05T23:27:28.625Z,100.00
2023-05-05T23:29:57.581Z,100.00
2023-05-05T23:34:55.332Z,100.00
2023-05-05T23:37:23.588Z,100.00
2023-05-05T23:39:51.083Z,100.00
2023-05-05T23:42:18.517Z,100.00
2023-05-05T23:44:45.513Z,100.00
2023-05-05T23:47:12.282Z,100.00
2023-05-05T23:49:39.015Z,100.00
2023-05-05T23:52:05.865Z,100.00
2023-05-05T23:54:32.595Z,100.00
2023-05-05T23:57:00.287Z,100.00
2023-05-05T23:59:26.988Z,100.00
